Baltic, Ohio
Current Conditions -  °F | °C
As of 5:53 PM on Wednesday 22 Oct 2014 (Local Time) from KPHD Reporting Station
Overcast Overcast  
Wind Chill: 51°   Ceiling: 3100
Heat Index: 51°   Visibility: 10mi
Dew Point: 41°   Wind: 9mph
Humidity: 68%   Direction: 330°NNW
Pressure: 30.22"   Gusts: NA
Location:  40.44°N, 81.7°W
Report Text: KPHD 222153Z AUTO 33008KT 10SM OVC031 11/05 A3022 RMK AO2 SLP237 T01060050
Loading
Personal Weather Stations






























Interactive Weather Map
Tropical Storm Tracking
New forecast layout! Learn more

10-Day Weather Forecast

Advertisements
Track Severe Weather on mobile